createdAt,value
2022-12-27T00:01:21.810Z,98910.53
2022-12-27T00:03:52.257Z,98905.22
2022-12-27T00:06:26.066Z,98903.88
2022-12-27T00:08:57.003Z,98915.56
2022-12-27T00:11:30.231Z,98908.53
2022-12-27T00:14:02.466Z,98913.16
2022-12-27T00:16:35.647Z,98907.84
2022-12-27T00:19:06.463Z,98916.63
2022-12-27T00:21:36.925Z,98918.19
2022-12-27T00:24:07.884Z,98920.19
2022-12-27T00:26:39.455Z,98918.41
2022-12-27T00:29:10.596Z,98930.88
2022-12-27T00:31:43.200Z,98925.78
2022-12-27T00:34:13.646Z,98946.06
2022-12-27T00:36:43.606Z,98951.78
2022-12-27T00:39:14.694Z,98953.09
2022-12-27T00:41:44.929Z,98952.47
2022-12-27T00:44:14.831Z,98964.69
2022-12-27T00:46:47.378Z,98969.88
2022-12-27T00:49:17.357Z,98971.19
2022-12-27T00:51:47.379Z,98977.94
2022-12-27T00:54:17.466Z,98989.94
2022-12-27T00:56:47.458Z,98997.97
2022-12-27T00:59:17.459Z,99000.31
2022-12-27T01:01:50.312Z,99011.56
2022-12-27T01:04:20.410Z,99014.88
2022-12-27T01:06:50.659Z,99017.59
2022-12-27T01:09:20.626Z,99014.84
2022-12-27T01:11:50.674Z,99028.59
2022-12-27T01:14:20.640Z,99034.22
2022-12-27T01:16:53.342Z,99029.69
2022-12-27T01:19:23.563Z,99034.38
2022-12-27T01:21:53.510Z,99043.19
2022-12-27T01:24:23.610Z,99044.38
2022-12-27T01:26:53.551Z,99039.91
2022-12-27T01:29:23.526Z,99045.91
2022-12-27T01:31:56.121Z,99052.44
2022-12-27T01:34:26.146Z,99062.53
2022-12-27T01:36:56.119Z,99056.69
2022-12-27T01:39:26.241Z,99060.38
2022-12-27T01:42:08.891Z,99077.31
2022-12-27T01:45:03.989Z,99075.06
2022-12-27T01:47:51.589Z,99078.16
2022-12-27T01:50:36.575Z,99088.94
2022-12-27T01:53:15.218Z,99087.34
2022-12-27T01:55:50.921Z,99093.44
2022-12-27T01:58:27.527Z,99101.78
2022-12-27T02:00:59.485Z,99106.91
2022-12-27T02:03:37.694Z,99099.09
2022-12-27T02:06:13.279Z,99108.69
2022-12-27T02:08:54.611Z,99105.59
2022-12-27T02:11:43.826Z,99104.44
2022-12-27T02:14:16.516Z,99114.28
2022-12-27T02:16:46.564Z,99117.66
2022-12-27T02:19:45.360Z,99117.94
2022-12-27T02:23:06.983Z,99117.66
2022-12-27T02:26:06.261Z,99114.84
2022-12-27T02:29:19.444Z,99112.81
2022-12-27T02:32:00.645Z,99126.09
2022-12-27T02:34:38.782Z,99127.34
2022-12-27T02:37:13.649Z,99133.28
2022-12-27T02:39:49.020Z,99134.00
2022-12-27T02:42:34.982Z,99129.88
2022-12-27T02:45:33.760Z,99127.69
2022-12-27T02:48:28.253Z,99124.16
2022-12-27T02:51:30.051Z,99127.09
2022-12-27T02:54:18.583Z,99122.88
2022-12-27T02:57:13.726Z,99131.88
2022-12-27T03:00:26.059Z,99134.00
2022-12-27T03:03:28.746Z,99131.28
2022-12-27T03:06:47.102Z,99134.97
2022-12-27T03:09:56.332Z,99133.56
2022-12-27T03:13:00.368Z,99131.84
2022-12-27T03:15:58.471Z,99142.25
2022-12-27T03:18:45.392Z,99139.63
2022-12-27T03:21:37.690Z,99140.81
2022-12-27T03:24:35.258Z,99142.59
2022-12-27T03:27:10.578Z,99142.91
2022-12-27T03:29:53.919Z,99141.59
2022-12-27T03:32:40.647Z,99142.28
2022-12-27T03:35:19.413Z,99144.91
2022-12-27T03:38:04.045Z,99157.63
2022-12-27T03:41:17.374Z,99161.13
2022-12-27T03:43:47.835Z,99165.00
2022-12-27T03:46:39.063Z,99161.44
2022-12-27T03:49:23.409Z,99158.91
2022-12-27T03:51:59.984Z,99159.63
2022-12-27T03:54:34.989Z,99167.75
2022-12-27T03:57:09.207Z,99167.59
2022-12-27T03:59:39.335Z,99162.72
2022-12-27T04:02:10.858Z,99160.28
2022-12-27T04:04:44.043Z,99158.97
2022-12-27T04:07:16.985Z,99164.56
2022-12-27T04:09:59.836Z,99157.03
2022-12-27T04:12:42.453Z,99161.78
2022-12-27T04:15:25.890Z,99167.31
2022-12-27T04:18:08.395Z,99170.84
2022-12-27T04:20:53.833Z,99166.84
2022-12-27T04:23:37.361Z,99170.22
2022-12-27T04:26:20.078Z,99174.22
2022-12-27T04:29:02.530Z,99172.84
2022-12-27T04:31:45.029Z,99183.19
2022-12-27T04:34:27.620Z,99185.28
2022-12-27T04:37:00.154Z,99174.63
2022-12-27T04:39:30.129Z,99167.75
2022-12-27T04:42:12.627Z,99163.91
2022-12-27T04:45:00.963Z,99175.22
2022-12-27T04:47:44.424Z,99172.19
2022-12-27T04:50:43.083Z,99180.81
2022-12-27T04:53:32.513Z,99179.69
2022-12-27T04:56:03.213Z,99181.72
2022-12-27T04:58:33.759Z,99180.31
2022-12-27T05:01:20.188Z,99175.69
2022-12-27T05:03:54.345Z,99182.72
2022-12-27T05:06:24.321Z,99184.81
2022-12-27T05:09:09.368Z,99185.88
2022-12-27T05:11:51.808Z,99182.13
2022-12-27T05:14:21.877Z,99179.97
2022-12-27T05:16:51.812Z,99187.97
2022-12-27T05:19:21.743Z,99187.56
2022-12-27T05:22:03.968Z,99197.44
2022-12-27T05:24:54.737Z,99201.00
2022-12-27T05:27:24.712Z,99198.00
2022-12-27T05:29:54.666Z,99201.94
2022-12-27T05:32:24.635Z,99208.22
2022-12-27T05:34:54.577Z,99209.09
2022-12-27T05:37:24.622Z,99215.56
2022-12-27T05:39:57.655Z,99223.94
2022-12-27T05:42:27.678Z,99220.22
2022-12-27T05:44:57.925Z,99224.75
2022-12-27T05:47:27.952Z,99223.41
2022-12-27T05:49:57.933Z,99229.50
2022-12-27T05:52:28.366Z,99220.34
2022-12-27T05:55:00.978Z,99227.53
2022-12-27T05:57:31.606Z,99225.34
2022-12-27T06:00:01.537Z,99230.03
2022-12-27T06:02:31.637Z,99230.56
2022-12-27T06:05:01.786Z,99234.69
2022-12-27T06:07:33.119Z,99225.28
2022-12-27T06:10:06.091Z,99221.44
2022-12-27T06:12:36.061Z,99233.06
2022-12-27T06:15:06.954Z,99228.69
2022-12-27T06:17:37.163Z,99228.06
2022-12-27T06:20:08.714Z,99231.34
2022-12-27T06:22:38.767Z,99224.28
2022-12-27T06:25:14.296Z,99233.16
2022-12-27T06:27:44.967Z,99236.63
2022-12-27T06:30:16.627Z,99235.03
2022-12-27T06:32:46.597Z,99238.34
2022-12-27T06:35:17.030Z,99232.31
2022-12-27T06:37:46.976Z,99238.16
2022-12-27T06:40:20.984Z,99237.31
2022-12-27T06:42:51.111Z,99243.22
2022-12-27T06:45:21.215Z,99241.25
2022-12-27T06:47:51.159Z,99239.16
2022-12-27T06:50:21.327Z,99253.72
2022-12-27T06:52:51.322Z,99253.88
2022-12-27T06:55:24.014Z,99250.38
2022-12-27T06:57:54.005Z,99253.63
2022-12-27T07:00:24.205Z,99253.72
2022-12-27T07:02:54.325Z,99259.75
2022-12-27T07:05:24.458Z,99258.88
2022-12-27T07:07:55.281Z,99258.03
2022-12-27T07:10:27.840Z,99255.56
2022-12-27T07:12:58.733Z,99263.44
2022-12-27T07:15:28.772Z,99272.28
2022-12-27T07:17:58.711Z,99270.06
2022-12-27T07:20:28.687Z,99272.03
2022-12-27T07:23:00.125Z,99272.91
2022-12-27T07:25:32.717Z,99272.41
2022-12-27T07:28:02.608Z,99272.03
2022-12-27T07:30:32.575Z,99270.16
2022-12-27T07:33:02.577Z,99275.78
2022-12-27T07:35:32.517Z,99279.28
2022-12-27T07:38:02.458Z,99276.75
2022-12-27T07:40:34.966Z,99281.16
2022-12-27T07:43:04.934Z,99287.78
2022-12-27T07:45:35.676Z,99290.28
2022-12-27T07:48:05.903Z,99287.06
2022-12-27T07:50:35.855Z,99282.94
2022-12-27T07:53:06.038Z,99292.25
2022-12-27T07:55:38.515Z,99281.78
2022-12-27T07:58:09.074Z,99279.19
2022-12-27T08:00:39.008Z,99278.47
2022-12-27T08:03:09.028Z,99280.56
2022-12-27T08:05:39.021Z,99276.00
2022-12-27T08:08:09.099Z,99289.94
2022-12-27T08:10:41.645Z,99288.53
2022-12-27T08:13:11.900Z,99289.50
2022-12-27T08:15:46.417Z,99288.25
2022-12-27T08:18:16.377Z,99291.81
2022-12-27T08:20:49.087Z,99287.94
2022-12-27T08:23:19.038Z,99284.75
2022-12-27T08:25:51.689Z,99280.59
2022-12-27T08:28:21.873Z,99277.72
2022-12-27T08:30:51.887Z,99279.94
2022-12-27T08:33:21.834Z,99281.06
2022-12-27T08:35:53.645Z,99283.31
2022-12-27T08:38:24.460Z,99285.34
2022-12-27T08:40:57.387Z,99288.56
2022-12-27T08:43:29.822Z,99288.75
2022-12-27T08:46:04.595Z,99288.28
2022-12-27T08:48:37.474Z,99289.31
2022-12-27T08:51:12.978Z,99281.81
2022-12-27T08:53:43.778Z,99283.84
2022-12-27T08:56:16.280Z,99289.06
2022-12-27T08:58:46.361Z,99288.38
2022-12-27T09:01:16.393Z,99291.34
2022-12-27T09:03:46.580Z,99300.28
2022-12-27T09:06:20.538Z,99295.56
2022-12-27T09:08:53.076Z,99300.97
2022-12-27T09:11:28.304Z,99300.78
2022-12-27T09:14:01.081Z,99298.38
2022-12-27T09:16:34.103Z,99313.44
2022-12-27T09:19:05.427Z,99306.00
2022-12-27T09:21:37.097Z,99311.63
2022-12-27T09:24:07.650Z,99314.03
2022-12-27T09:26:40.241Z,99310.41
2022-12-27T09:29:10.405Z,99312.41
2022-12-27T09:31:40.371Z,99307.38
2022-12-27T09:34:10.331Z,99310.75
2022-12-27T09:36:42.956Z,99308.59
2022-12-27T09:39:13.967Z,99310.53
2022-12-27T09:44:58.458Z,99321.81
2022-12-27T09:47:36.123Z,99330.56
2022-12-27T09:50:14.359Z,99324.41
2022-12-27T09:52:54.226Z,99320.38
2022-12-27T09:55:37.104Z,99320.59
2022-12-27T09:58:30.831Z,99321.94
2022-12-27T10:01:00.817Z,99318.91
2022-12-27T10:03:33.418Z,99322.28
2022-12-27T10:06:18.074Z,99320.81
2022-12-27T10:09:02.985Z,99322.38
2022-12-27T10:11:45.583Z,99318.56
2022-12-27T10:14:42.231Z,99322.84
2022-12-27T10:17:30.696Z,99320.38
2022-12-27T10:20:18.875Z,99312.38
2022-12-27T10:22:54.524Z,99310.13
2022-12-27T10:25:28.332Z,99316.13
2022-12-27T10:28:03.781Z,99305.03
2022-12-27T10:30:36.849Z,99307.31
2022-12-27T10:33:07.137Z,99300.91
2022-12-27T10:35:37.194Z,99307.53
2022-12-27T10:38:13.430Z,99307.84
2022-12-27T10:40:58.102Z,99306.94
2022-12-27T10:43:38.704Z,99306.75
2022-12-27T10:46:21.359Z,99302.31
2022-12-27T10:51:53.400Z,99305.34
2022-12-27T10:54:27.452Z,99305.91
2022-12-27T10:56:59.474Z,99292.72
2022-12-27T10:59:31.947Z,99300.03
2022-12-27T11:02:21.892Z,99295.72
2022-12-27T11:05:01.587Z,99293.72
2022-12-27T11:07:34.188Z,99290.59
2022-12-27T11:10:19.484Z,99284.53
2022-12-27T11:13:03.794Z,99291.50
2022-12-27T11:15:37.244Z,99293.31
2022-12-27T11:18:21.749Z,99284.00
2022-12-27T11:20:55.763Z,99284.69
2022-12-27T11:23:32.349Z,99286.44
2022-12-27T11:26:08.902Z,99285.75
2022-12-27T11:28:44.985Z,99283.34
2022-12-27T11:31:19.661Z,99282.81
2022-12-27T11:33:56.304Z,99283.09
2022-12-27T11:36:31.273Z,99278.69
2022-12-27T11:39:03.245Z,99277.09
2022-12-27T11:41:45.087Z,99275.63
2022-12-27T11:44:25.080Z,99278.03
2022-12-27T11:47:02.998Z,99277.50
2022-12-27T11:49:40.442Z,99273.75
2022-12-27T11:52:51.276Z,99267.31
2022-12-27T11:55:59.966Z,99260.81
2022-12-27T11:59:06.553Z,99262.97
2022-12-27T12:01:57.733Z,99264.66
2022-12-27T12:05:10.702Z,99264.84
2022-12-27T12:08:14.045Z,99264.44
2022-12-27T12:10:58.492Z,99264.84
2022-12-27T12:14:07.536Z,99264.91
2022-12-27T12:17:07.669Z,99262.59
2022-12-27T12:20:03.346Z,99257.13
2022-12-27T12:23:08.503Z,99257.56
2022-12-27T12:26:13.667Z,99258.16
2022-12-27T12:29:35.775Z,99253.75
2022-12-27T12:32:38.603Z,99258.88
2022-12-27T12:35:50.886Z,99256.03
2022-12-27T12:38:25.671Z,99263.13
2022-12-27T12:41:32.409Z,99254.22
2022-12-27T12:45:00.534Z,99265.59
2022-12-27T12:48:01.743Z,99276.19
2022-12-27T12:50:57.169Z,99256.56
2022-12-27T12:53:57.270Z,99264.03
2022-12-27T12:56:52.043Z,99253.63
2022-12-27T12:59:51.660Z,99250.72
2022-12-27T13:02:52.110Z,99250.94
2022-12-27T13:05:41.694Z,99246.75
2022-12-27T13:08:22.599Z,99250.16
2022-12-27T13:11:32.011Z,99243.50
2022-12-27T13:14:34.986Z,99234.47
2022-12-27T13:17:17.476Z,99239.34
2022-12-27T13:20:11.038Z,99236.84
2022-12-27T13:23:02.936Z,99247.47
2022-12-27T13:25:47.752Z,99239.09
2022-12-27T13:28:37.672Z,99228.72
2022-12-27T13:31:24.270Z,99223.25
2022-12-27T13:34:13.226Z,99224.88
2022-12-27T13:37:07.864Z,99225.06
2022-12-27T13:39:58.325Z,99220.41
2022-12-27T13:43:08.444Z,99221.50
2022-12-27T13:46:00.937Z,99218.69
2022-12-27T13:48:55.085Z,99219.91
2022-12-27T13:51:45.396Z,99221.19
2022-12-27T13:54:50.812Z,99218.63
2022-12-27T13:58:04.185Z,99210.75
2022-12-27T14:00:43.375Z,99205.75
2022-12-27T14:04:01.262Z,99207.91
2022-12-27T14:07:06.352Z,99204.31
2022-12-27T14:10:10.535Z,99207.09
2022-12-27T14:12:58.166Z,99209.00
2022-12-27T14:15:53.488Z,99206.19
2022-12-27T14:19:01.315Z,99207.66
2022-12-27T14:22:27.271Z,99199.13
2022-12-27T14:25:53.372Z,99210.84
2022-12-27T14:28:59.622Z,99216.47
2022-12-27T14:32:23.092Z,99218.31
2022-12-27T14:35:25.136Z,99220.72
2022-12-27T14:38:36.411Z,99217.09
2022-12-27T14:42:06.289Z,99222.31
2022-12-27T14:45:28.081Z,99217.50
2022-12-27T14:48:38.049Z,99220.72
2022-12-27T14:52:10.503Z,99221.03
2022-12-27T14:55:34.990Z,99224.31
2022-12-27T14:58:39.085Z,99219.44
2022-12-27T15:01:23.193Z,99220.56
2022-12-27T15:04:15.961Z,99211.75
2022-12-27T15:07:22.778Z,99208.63
2022-12-27T15:10:07.378Z,99217.72
2022-12-27T15:12:48.624Z,99216.06
2022-12-27T15:15:41.510Z,99210.97
2022-12-27T15:18:45.145Z,99221.94
2022-12-27T15:21:41.799Z,99219.91
2022-12-27T15:24:28.168Z,99220.97
2022-12-27T15:27:09.006Z,99217.75
2022-12-27T15:30:03.186Z,99213.53
2022-12-27T15:32:53.068Z,99209.91
2022-12-27T15:35:50.849Z,99196.59
2022-12-27T15:38:49.577Z,99198.34
2022-12-27T15:41:39.233Z,99190.91
2022-12-27T15:44:43.817Z,99187.59
2022-12-27T15:47:45.344Z,99191.50
2022-12-27T15:50:41.844Z,99186.34
2022-12-27T15:53:34.605Z,99189.56
2022-12-27T15:56:28.876Z,99185.66
2022-12-27T15:59:45.675Z,99183.84
2022-12-27T16:02:32.231Z,99179.28
2022-12-27T16:05:36.786Z,99182.69
2022-12-27T16:08:32.539Z,99182.34
2022-12-27T16:11:04.560Z,99189.13
2022-12-27T16:13:43.338Z,99187.25
2022-12-27T16:16:56.552Z,99176.94
2022-12-27T16:19:59.253Z,99175.44
2022-12-27T16:22:39.256Z,99167.78
2022-12-27T16:25:31.010Z,99163.44
2022-12-27T16:28:07.726Z,99166.41
2022-12-27T16:30:51.571Z,99167.44
2022-12-27T16:33:37.620Z,99172.66
2022-12-27T16:36:30.486Z,99166.16
2022-12-27T16:39:54.212Z,99165.25
2022-12-27T16:42:43.464Z,99171.75
2022-12-27T16:45:36.743Z,99170.13
2022-12-27T16:48:27.466Z,99175.06
2022-12-27T16:51:16.007Z,99172.75
2022-12-27T16:54:17.245Z,99181.00
2022-12-27T16:56:48.419Z,99180.47
2022-12-27T16:59:58.419Z,99178.63
2022-12-27T17:02:40.508Z,99182.97
2022-12-27T17:05:36.230Z,99173.25
2022-12-27T17:08:19.087Z,99168.69
2022-12-27T17:11:26.400Z,99168.31
2022-12-27T17:14:03.549Z,99159.03
2022-12-27T17:16:48.915Z,99162.69
2022-12-27T17:19:30.270Z,99155.38
2022-12-27T17:22:05.548Z,99151.69
2022-12-27T17:24:35.874Z,99146.41
2022-12-27T17:27:22.748Z,99147.19
2022-12-27T17:30:22.393Z,99140.19
2022-12-27T17:33:21.199Z,99133.94
2022-12-27T17:36:25.541Z,99130.44
2022-12-27T17:39:18.828Z,99119.66
2022-12-27T17:42:15.748Z,99115.91
2022-12-27T17:45:11.319Z,99110.50
2022-12-27T17:48:12.358Z,99118.56
2022-12-27T17:50:47.072Z,99120.41
2022-12-27T17:53:36.849Z,99117.44
2022-12-27T17:56:38.525Z,99121.06
2022-12-27T17:59:14.100Z,99119.22
2022-12-27T18:01:51.343Z,99109.44
2022-12-27T18:04:28.978Z,99119.38
2022-12-27T18:07:02.053Z,99120.47
2022-12-27T18:09:43.584Z,99120.88
2022-12-27T18:12:20.889Z,99125.38
2022-12-27T18:14:59.682Z,99128.97
2022-12-27T18:17:40.691Z,99125.06
2022-12-27T18:20:36.578Z,99120.47
2022-12-27T18:23:24.496Z,99104.28
2022-12-27T18:26:12.363Z,99101.19
2022-12-27T18:28:44.867Z,99104.00
2022-12-27T18:31:24.333Z,99097.66
2022-12-27T18:34:03.484Z,99099.38
2022-12-27T18:36:38.844Z,99101.38
2022-12-27T18:39:24.762Z,99096.97
2022-12-27T18:41:57.341Z,99097.97
2022-12-27T18:44:32.039Z,99100.69
2022-12-27T18:47:06.373Z,99099.38
2022-12-27T18:49:40.465Z,99102.97
2022-12-27T18:52:18.281Z,99097.06
2022-12-27T18:54:48.550Z,99089.31
2022-12-27T18:57:35.984Z,99079.97
2022-12-27T19:00:23.180Z,99077.84
2022-12-27T19:02:55.234Z,99078.97
2022-12-27T19:05:33.121Z,99073.03
2022-12-27T19:08:14.860Z,99069.13
2022-12-27T19:10:52.183Z,99069.16
2022-12-27T19:13:28.425Z,99069.28
2022-12-27T19:16:01.197Z,99069.47
2022-12-27T19:18:38.437Z,99063.94
2022-12-27T19:21:17.774Z,99065.97
2022-12-27T19:23:49.466Z,99065.97
2022-12-27T19:26:35.376Z,99065.19
2022-12-27T19:29:17.546Z,99064.16
2022-12-27T19:31:57.261Z,99064.75
2022-12-27T19:34:32.280Z,99060.84
2022-12-27T19:37:04.848Z,99059.25
2022-12-27T19:39:39.284Z,99058.75
2022-12-27T19:42:17.561Z,99047.88
2022-12-27T19:44:47.779Z,99054.19
2022-12-27T19:47:17.752Z,99052.47
2022-12-27T19:49:47.820Z,99043.13
2022-12-27T19:52:24.855Z,99039.09
2022-12-27T19:55:03.109Z,99037.59
2022-12-27T19:57:33.518Z,99035.34
2022-12-27T20:00:12.053Z,99038.75
2022-12-27T20:02:42.507Z,99027.69
2022-12-27T20:05:14.428Z,99023.94
2022-12-27T20:07:47.552Z,99025.19
2022-12-27T20:10:18.025Z,99022.75
2022-12-27T20:12:47.980Z,99019.97
2022-12-27T20:15:18.206Z,99019.34
2022-12-27T20:17:48.194Z,99011.69
2022-12-27T20:20:18.236Z,99013.16
2022-12-27T20:22:50.838Z,99022.63
2022-12-27T20:25:20.854Z,99016.72
2022-12-27T20:27:50.826Z,99026.63
2022-12-27T20:30:20.936Z,99026.38
2022-12-27T20:32:50.880Z,99030.53
2022-12-27T20:35:20.820Z,99026.00
2022-12-27T20:37:53.431Z,99027.00
2022-12-27T20:40:23.786Z,99026.97
2022-12-27T20:42:54.424Z,99022.75
2022-12-27T20:45:24.806Z,99011.38
2022-12-27T20:47:54.787Z,99013.34
2022-12-27T20:50:25.245Z,99013.91
2022-12-27T20:52:58.512Z,99012.69
2022-12-27T20:55:28.444Z,99003.38
2022-12-27T20:57:58.407Z,99006.97
2022-12-27T21:00:28.334Z,99011.72
2022-12-27T21:03:00.200Z,99000.84
2022-12-27T21:05:30.469Z,99011.75
2022-12-27T21:08:02.990Z,99008.13
2022-12-27T21:10:32.945Z,99008.31
2022-12-27T21:13:02.856Z,98999.66
2022-12-27T21:15:34.924Z,99008.44
2022-12-27T21:18:09.180Z,99004.72
2022-12-27T21:20:39.145Z,99004.47
2022-12-27T21:23:11.700Z,98996.25
2022-12-27T21:25:41.680Z,99000.03
2022-12-27T21:28:12.602Z,99002.78
2022-12-27T21:30:42.577Z,98998.69
2022-12-27T21:33:12.615Z,98997.78
2022-12-27T21:35:42.620Z,99001.97
2022-12-27T21:38:15.128Z,98997.25
2022-12-27T21:40:45.050Z,98987.25
2022-12-27T21:43:15.134Z,98988.75
2022-12-27T21:45:45.164Z,99000.16
2022-12-27T21:48:15.160Z,99001.25
2022-12-27T21:50:45.484Z,99003.84
2022-12-27T21:53:19.142Z,99001.44
2022-12-27T21:55:49.848Z,98993.47
2022-12-27T21:58:19.863Z,98990.66
2022-12-27T22:00:54.726Z,98990.47
2022-12-27T22:03:27.792Z,98995.66
2022-12-27T22:05:57.827Z,98994.22
2022-12-27T22:08:30.321Z,98987.78
2022-12-27T22:11:00.437Z,98994.75
2022-12-27T22:13:30.435Z,98996.59
2022-12-27T22:16:03.464Z,98980.25
2022-12-27T22:18:35.270Z,98983.84
2022-12-27T22:21:08.534Z,98980.97
2022-12-27T22:23:44.037Z,98984.38
2022-12-27T22:26:16.306Z,98983.13
2022-12-27T22:28:47.122Z,98988.84
2022-12-27T22:31:20.620Z,98973.66
2022-12-27T22:33:51.976Z,98984.69
2022-12-27T22:36:24.210Z,98977.75
2022-12-27T22:38:59.784Z,98970.25
2022-12-27T22:41:32.260Z,98972.94
2022-12-27T22:44:05.050Z,98977.06
2022-12-27T22:47:24.454Z,98963.06
2022-12-27T22:49:25.914Z,98957.28
2022-12-27T22:51:55.995Z,98951.19
2022-12-27T22:55:03.123Z,98947.25
2022-12-27T22:57:18.475Z,98937.88
2022-12-27T22:59:48.489Z,98945.31
2022-12-27T23:02:18.689Z,98946.72
2022-12-27T23:04:49.048Z,98946.91
2022-12-27T23:07:21.158Z,98952.16
2022-12-27T23:10:13.888Z,98944.22
2022-12-27T23:12:43.987Z,98941.72
2022-12-27T23:15:14.531Z,98947.00
2022-12-27T23:17:44.555Z,98941.38
2022-12-27T23:20:15.345Z,98943.88
2022-12-27T23:22:45.322Z,98942.16
2022-12-27T23:25:18.058Z,98933.69
2022-12-27T23:27:47.994Z,98926.81
2022-12-27T23:30:19.661Z,98929.56
2022-12-27T23:32:50.090Z,98924.38
2022-12-27T23:35:20.134Z,98927.97
2022-12-27T23:37:50.107Z,98919.56
2022-12-27T23:40:23.175Z,98922.25
2022-12-27T23:42:53.118Z,98917.63
2022-12-27T23:45:23.114Z,98922.63
2022-12-27T23:47:53.196Z,98920.13
2022-12-27T23:50:23.204Z,98926.63
2022-12-27T23:52:53.186Z,98925.72
2022-12-27T23:55:25.767Z,98919.38
2022-12-27T23:57:55.784Z,98915.25
